createdAt,value
2023-03-22T00:01:30.912Z,43.53
2023-03-22T00:03:57.627Z,43.83
2023-03-22T00:06:25.417Z,42.78
2023-03-22T00:08:53.182Z,42.67
2023-03-22T00:11:22.498Z,44.53
2023-03-22T00:16:19.953Z,43.28
2023-03-22T00:18:46.799Z,43.63
2023-03-22T00:21:15.648Z,44.17
2023-03-22T00:23:43.143Z,45.72
2023-03-22T00:26:11.599Z,43.30
2023-03-22T00:28:38.101Z,43.03
2023-03-22T00:31:05.842Z,43.22
2023-03-22T00:33:32.968Z,42.67
2023-03-22T00:36:01.959Z,42.85
2023-03-22T00:38:42.524Z,40.50
2023-03-22T00:41:12.745Z,40.42
2023-03-22T00:43:39.552Z,38.95
2023-03-22T00:46:06.608Z,41.55
2023-03-22T00:48:33.356Z,40.63
2023-03-22T00:51:00.146Z,40.42
2023-03-22T00:53:28.946Z,40.33
2023-03-22T00:55:56.704Z,40.38
2023-03-22T00:58:23.356Z,38.53
2023-03-22T01:00:50.262Z,39.17
2023-03-22T01:03:17.349Z,38.13
2023-03-22T01:05:47.034Z,39.92
2023-03-22T01:08:14.880Z,37.88
2023-03-22T01:10:42.561Z,38.35
2023-03-22T01:13:10.746Z,36.65
2023-03-22T01:15:37.972Z,37.90
2023-03-22T01:18:04.863Z,35.67
2023-03-22T01:20:31.948Z,35.83
2023-03-22T01:22:59.365Z,35.45
2023-03-22T01:25:25.978Z,33.80
2023-03-22T01:27:52.511Z,34.33
2023-03-22T01:30:19.221Z,34.05
2023-03-22T01:32:45.781Z,32.60
2023-03-22T01:35:12.535Z,33.50
2023-03-22T01:37:39.161Z,31.35
2023-03-22T01:40:06.595Z,32.42
2023-03-22T01:42:33.112Z,31.58
2023-03-22T01:45:14.798Z,32.22
2023-03-22T01:47:51.873Z,31.33
2023-03-22T01:50:19.333Z,31.95
2023-03-22T01:52:45.969Z,32.85
2023-03-22T01:55:13.410Z,31.55
2023-03-22T01:57:41.462Z,30.90
2023-03-22T02:00:15.768Z,30.88
2023-03-22T02:02:44.167Z,30.08
2023-03-22T02:05:12.190Z,28.40
2023-03-22T02:07:42.040Z,28.58
2023-03-22T02:10:14.034Z,28.48
2023-03-22T02:13:15.595Z,26.98
2023-03-22T02:16:20.798Z,27.33
2023-03-22T02:18:58.261Z,27.17
2023-03-22T02:21:33.638Z,27.02
2023-03-22T02:24:24.085Z,26.55
2023-03-22T02:27:09.235Z,27.40
2023-03-22T02:29:59.108Z,27.48
2023-03-22T02:32:58.245Z,27.83
2023-03-22T02:38:21.304Z,26.88
2023-03-22T02:41:04.784Z,29.33
2023-03-22T02:43:56.273Z,28.50
2023-03-22T02:46:44.010Z,27.55
2023-03-22T02:49:23.473Z,28.48
2023-03-22T02:52:01.319Z,28.92
2023-03-22T02:54:38.052Z,29.80
2023-03-22T02:57:28.440Z,29.38
2023-03-22T02:59:56.866Z,27.38
2023-03-22T03:02:26.552Z,28.90
2023-03-22T03:04:55.920Z,27.92
2023-03-22T03:09:51.725Z,25.67
2023-03-22T03:12:21.386Z,24.45
2023-03-22T03:14:48.169Z,24.05
2023-03-22T03:17:29.526Z,23.65
2023-03-22T03:20:21.959Z,22.63
2023-03-22T03:23:00.238Z,23.48
2023-03-22T03:25:43.238Z,23.00
2023-03-22T03:28:29.953Z,21.80
2023-03-22T03:31:16.720Z,22.10
2023-03-22T03:33:53.642Z,21.65
2023-03-22T03:36:22.197Z,22.55
2023-03-22T03:38:53.614Z,22.10
2023-03-22T03:41:23.801Z,20.40
2023-03-22T03:43:51.489Z,20.90
2023-03-22T03:46:18.343Z,21.77
2023-03-22T03:48:48.482Z,22.30
2023-03-22T03:51:15.514Z,22.33
2023-03-22T03:53:42.284Z,21.25
2023-03-22T03:56:09.216Z,23.75
2023-03-22T03:58:35.858Z,24.10
2023-03-22T04:01:04.030Z,24.15
2023-03-22T04:03:31.322Z,24.53
2023-03-22T04:05:59.630Z,24.92
2023-03-22T04:08:27.014Z,26.48
2023-03-22T04:10:53.637Z,27.85
2023-03-22T04:13:21.546Z,29.13
2023-03-22T04:15:53.066Z,30.60
2023-03-22T04:18:19.718Z,30.75
2023-03-22T04:20:46.978Z,33.30
2023-03-22T04:23:13.542Z,32.20
2023-03-22T04:25:40.045Z,31.98
2023-03-22T04:28:07.389Z,31.38
2023-03-22T04:30:36.026Z,32.55
2023-03-22T04:33:06.966Z,33.95
2023-03-22T04:35:34.902Z,35.25
2023-03-22T04:38:01.493Z,37.75
2023-03-22T04:40:31.566Z,36.50
2023-03-22T04:42:58.825Z,38.60
2023-03-22T04:45:29.077Z,41.80
2023-03-22T04:47:56.107Z,40.55
2023-03-22T04:50:22.701Z,39.85
2023-03-22T04:52:49.796Z,42.10
2023-03-22T04:55:16.726Z,40.90
2023-03-22T04:57:43.227Z,41.83
2023-03-22T05:00:10.127Z,42.70
2023-03-22T05:02:41.521Z,41.58
2023-03-22T05:05:08.463Z,42.45
2023-03-22T05:07:35.094Z,43.13
2023-03-22T05:10:01.878Z,42.97
2023-03-22T05:12:28.386Z,44.65
2023-03-22T05:14:54.941Z,48.78
2023-03-22T05:17:21.508Z,43.92
2023-03-22T05:19:48.295Z,46.03
2023-03-22T05:22:14.835Z,45.88
2023-03-22T05:24:41.483Z,44.67
2023-03-22T05:27:08.319Z,47.80
2023-03-22T05:29:36.792Z,48.10
2023-03-22T05:32:04.390Z,48.28
2023-03-22T05:34:35.628Z,45.70
2023-03-22T05:37:02.796Z,47.10
2023-03-22T05:39:29.480Z,44.83
2023-03-22T05:41:56.170Z,44.00
2023-03-22T05:44:22.720Z,44.47
2023-03-22T05:46:49.316Z,44.88
2023-03-22T05:49:15.933Z,45.88
2023-03-22T05:51:42.562Z,43.28
2023-03-22T05:54:09.762Z,43.72
2023-03-22T05:56:36.500Z,45.20
2023-03-22T05:59:04.524Z,45.00
2023-03-22T06:01:31.276Z,44.90
2023-03-22T06:03:57.847Z,43.88
2023-03-22T06:06:24.574Z,46.38
2023-03-22T06:08:51.097Z,44.13
2023-03-22T06:11:19.132Z,44.13
2023-03-22T06:13:45.712Z,41.65
2023-03-22T06:16:12.300Z,40.78
2023-03-22T06:18:38.855Z,38.25
2023-03-22T06:21:05.783Z,33.67
2023-03-22T06:23:32.347Z,30.33
2023-03-22T06:25:58.993Z,26.70
2023-03-22T06:28:29.698Z,25.98
2023-03-22T06:30:56.517Z,24.80
2023-03-22T06:33:23.189Z,21.60
2023-03-22T06:35:49.761Z,20.83
2023-03-22T06:38:16.548Z,19.45
2023-03-22T06:40:43.313Z,18.98
2023-03-22T06:43:09.893Z,17.77
2023-03-22T06:45:36.450Z,17.10
2023-03-22T06:48:03.096Z,16.33
2023-03-22T06:50:29.908Z,15.00
2023-03-22T06:52:56.618Z,14.52
2023-03-22T06:55:24.706Z,11.73
2023-03-22T06:57:51.256Z,12.07
2023-03-22T07:00:18.237Z,11.73
2023-03-22T07:02:44.784Z,11.65
2023-03-22T07:05:11.323Z,11.43
2023-03-22T07:07:37.913Z,10.75
2023-03-22T07:10:05.275Z,10.60
2023-03-22T07:12:31.969Z,11.02
2023-03-22T07:14:58.622Z,10.73
2023-03-22T07:17:25.181Z,10.45
2023-03-22T07:19:51.692Z,10.05
2023-03-22T07:22:18.437Z,10.18
2023-03-22T07:24:56.183Z,10.05
2023-03-22T07:27:23.728Z,11.18
2023-03-22T07:29:50.428Z,10.10
2023-03-22T07:32:17.219Z,10.20
2023-03-22T07:34:43.947Z,9.88
2023-03-22T07:37:10.683Z,9.32
2023-03-22T07:39:37.367Z,9.73
2023-03-22T07:42:03.993Z,8.30
2023-03-22T07:44:30.753Z,8.25
2023-03-22T07:46:57.364Z,8.00
2023-03-22T07:49:23.992Z,8.43
2023-03-22T07:51:50.555Z,7.38
2023-03-22T07:54:32.107Z,8.10
2023-03-22T07:56:59.475Z,8.18
2023-03-22T07:59:26.281Z,6.90
2023-03-22T08:01:52.853Z,7.25
2023-03-22T08:04:20.834Z,7.82
2023-03-22T08:06:47.396Z,6.20
2023-03-22T08:09:13.955Z,6.05
2023-03-22T08:11:40.490Z,6.05
2023-03-22T08:14:07.217Z,6.05
2023-03-22T08:16:34.300Z,5.13
2023-03-22T08:19:01.049Z,4.95
2023-03-22T08:21:27.750Z,4.75
2023-03-22T08:23:54.436Z,4.40
2023-03-22T08:26:22.048Z,4.32
2023-03-22T08:28:48.667Z,4.97
2023-03-22T08:31:17.038Z,4.70
2023-03-22T08:33:44.480Z,4.68
2023-03-22T08:36:14.149Z,4.47
2023-03-22T08:38:42.286Z,4.45
2023-03-22T08:41:08.929Z,4.70
2023-03-22T08:43:35.515Z,4.38
2023-03-22T08:46:02.394Z,4.13
2023-03-22T08:48:30.686Z,4.50
2023-03-22T08:50:58.031Z,4.23
2023-03-22T08:53:24.735Z,3.70
2023-03-22T08:55:51.267Z,3.95
2023-03-22T08:58:19.762Z,3.72
2023-03-22T09:00:49.523Z,3.00
2023-03-22T09:03:16.942Z,3.03
2023-03-22T09:05:43.703Z,3.20
2023-03-22T09:08:18.443Z,3.05
2023-03-22T09:10:47.955Z,3.00
2023-03-22T09:13:16.707Z,2.85
2023-03-22T09:15:44.919Z,3.33
2023-03-22T09:18:12.086Z,4.30
2023-03-22T09:20:39.703Z,4.63
2023-03-22T09:23:06.820Z,2.95
2023-03-22T09:25:33.466Z,3.50
2023-03-22T09:28:00.008Z,3.15
2023-03-22T09:30:27.135Z,3.00
2023-03-22T09:32:54.230Z,2.60
2023-03-22T09:35:21.279Z,3.00
2023-03-22T09:37:49.178Z,3.60
2023-03-22T09:40:17.337Z,4.30
2023-03-22T09:42:50.207Z,3.92
2023-03-22T09:45:20.520Z,2.80
2023-03-22T09:47:51.153Z,2.70
2023-03-22T09:50:26.217Z,3.63
2023-03-22T09:52:53.613Z,2.70
2023-03-22T09:55:38.850Z,2.63
2023-03-22T09:58:32.818Z,3.90
2023-03-22T10:01:06.662Z,2.60
2023-03-22T10:04:26.266Z,2.25
2023-03-22T10:07:13.814Z,3.28
2023-03-22T10:09:55.056Z,2.88
2023-03-22T10:12:50.046Z,2.63
2023-03-22T10:15:20.938Z,4.05
2023-03-22T10:17:53.413Z,5.18
2023-03-22T10:20:24.014Z,2.20
2023-03-22T10:22:53.447Z,1.95
2023-03-22T10:25:27.391Z,1.88
2023-03-22T10:27:54.234Z,2.05
2023-03-22T10:30:24.378Z,1.80
2023-03-22T10:33:02.765Z,1.90
2023-03-22T10:35:30.573Z,1.70
2023-03-22T10:38:00.755Z,1.92
2023-03-22T10:40:31.133Z,1.80
2023-03-22T10:43:10.867Z,1.45
2023-03-22T10:45:38.167Z,1.42
2023-03-22T10:48:19.335Z,1.60
2023-03-22T10:50:46.444Z,1.60
2023-03-22T10:53:21.280Z,1.13
2023-03-22T10:55:48.084Z,1.10
2023-03-22T10:58:17.725Z,1.50
2023-03-22T11:00:53.590Z,1.60
2023-03-22T11:03:31.008Z,1.70
2023-03-22T11:06:12.582Z,1.45
2023-03-22T11:08:53.990Z,1.30
2023-03-22T11:11:20.609Z,1.42
2023-03-22T11:14:26.621Z,1.75
2023-03-22T11:16:57.085Z,1.50
2023-03-22T11:19:31.791Z,1.38
2023-03-22T11:21:59.991Z,1.20
2023-03-22T11:24:29.665Z,1.50
2023-03-22T11:27:18.775Z,1.48
2023-03-22T11:29:51.928Z,1.45
2023-03-22T11:32:21.156Z,1.25
2023-03-22T11:34:47.769Z,1.10
2023-03-22T11:37:18.214Z,1.20
2023-03-22T11:39:49.410Z,1.00
2023-03-22T11:42:20.817Z,1.33
2023-03-22T11:44:47.472Z,1.33
2023-03-22T11:47:14.382Z,0.93
2023-03-22T11:49:52.207Z,1.10
2023-03-22T11:52:25.798Z,1.10
2023-03-22T11:54:54.121Z,1.45
2023-03-22T11:57:27.258Z,1.42
2023-03-22T12:00:15.035Z,1.10
2023-03-22T12:02:50.320Z,1.20
2023-03-22T12:05:27.258Z,1.30
2023-03-22T12:08:20.822Z,1.40
2023-03-22T12:10:57.781Z,1.13
2023-03-22T12:13:43.783Z,1.38
2023-03-22T12:16:15.234Z,1.40
2023-03-22T12:19:19.630Z,1.23
2023-03-22T12:21:48.669Z,1.70
2023-03-22T12:24:35.683Z,1.00
2023-03-22T12:27:14.510Z,1.20
2023-03-22T12:29:51.898Z,1.20
2023-03-22T12:32:24.332Z,1.27
2023-03-22T12:34:55.126Z,1.85
2023-03-22T12:37:32.081Z,1.85
2023-03-22T12:40:25.973Z,1.20
2023-03-22T12:43:15.658Z,1.15
2023-03-22T12:45:49.098Z,1.13
2023-03-22T12:48:33.840Z,1.48
2023-03-22T12:51:06.178Z,2.08
2023-03-22T12:53:42.170Z,1.30
2023-03-22T12:56:31.109Z,1.10
2023-03-22T12:59:07.867Z,1.20
2023-03-22T13:01:58.356Z,1.33
2023-03-22T13:04:37.217Z,1.10
2023-03-22T13:07:30.557Z,1.13
2023-03-22T13:09:59.137Z,1.15
2023-03-22T13:12:29.174Z,1.10
2023-03-22T13:15:00.886Z,1.20
2023-03-22T13:17:27.513Z,1.02
2023-03-22T13:20:07.750Z,1.42
2023-03-22T13:22:37.525Z,1.50
2023-03-22T13:25:10.115Z,1.30
2023-03-22T13:27:46.047Z,1.40
2023-03-22T13:30:24.060Z,1.10
2023-03-22T13:33:08.489Z,1.10
2023-03-22T13:35:44.128Z,1.42
2023-03-22T13:38:19.356Z,1.45
2023-03-22T13:40:56.334Z,0.90
2023-03-22T13:43:33.735Z,1.25
2023-03-22T13:46:11.594Z,1.10
2023-03-22T13:48:47.380Z,1.00
2023-03-22T13:51:23.330Z,1.25
2023-03-22T13:53:52.573Z,1.15
2023-03-22T13:59:27.397Z,1.15
2023-03-22T14:02:04.829Z,0.80
2023-03-22T14:04:42.928Z,0.95
2023-03-22T14:07:30.753Z,1.20
2023-03-22T14:10:21.144Z,1.15
2023-03-22T14:12:55.818Z,0.98
2023-03-22T14:15:32.644Z,1.05
2023-03-22T14:18:23.816Z,1.08
2023-03-22T14:20:55.354Z,1.05
